createdAt,value
2023-01-21T00:00:01.532Z,24.3
2023-01-21T00:01:03.444Z,24.3
2023-01-21T00:02:05.275Z,24.3
2023-01-21T00:03:07.338Z,24.3
2023-01-21T00:04:09.396Z,24.3
2023-01-21T00:05:11.113Z,24.3
2023-01-21T00:06:12.996Z,24.3
2023-01-21T00:07:14.819Z,24.3
2023-01-21T00:08:16.663Z,24.3
2023-01-21T00:09:18.525Z,24.3
2023-01-21T00:10:20.273Z,24.3
2023-01-21T00:11:22.041Z,24.3
2023-01-21T00:12:23.777Z,24.3
2023-01-21T00:13:25.608Z,24.3
2023-01-21T00:14:27.460Z,24.3
2023-01-21T00:15:29.380Z,24.3
2023-01-21T00:16:31.498Z,24.3
2023-01-21T00:17:33.314Z,24.3
2023-01-21T00:18:35.211Z,24.3
2023-01-21T00:19:37.096Z,24.3
2023-01-21T00:20:39.037Z,24.3
2023-01-21T00:21:40.963Z,24.3
2023-01-21T00:22:42.835Z,24.3
2023-01-21T00:23:44.732Z,24.3
2023-01-21T00:24:46.499Z,24.3
2023-01-21T00:25:48.475Z,24.3
2023-01-21T00:26:50.294Z,24.3
2023-01-21T00:27:52.073Z,24.2
2023-01-21T00:28:53.969Z,24.2
2023-01-21T00:29:55.731Z,24.2
2023-01-21T00:30:57.660Z,24.3
2023-01-21T00:32:02.542Z,24.3
2023-01-21T00:33:04.384Z,24.2
2023-01-21T00:34:06.325Z,24.2
2023-01-21T00:35:08.062Z,24.3
2023-01-21T00:36:10.079Z,24.3
2023-01-21T00:37:12.004Z,24.2
2023-01-21T00:38:13.904Z,24.3
2023-01-21T00:39:15.755Z,24.3
2023-01-21T00:40:17.933Z,24.3
2023-01-21T00:41:20.684Z,24.3
2023-01-21T00:42:22.566Z,24.2
2023-01-21T00:43:24.426Z,24.3
2023-01-21T00:44:26.322Z,24.2
2023-01-21T00:45:28.182Z,24.3
2023-01-21T00:46:30.081Z,24.2
2023-01-21T00:47:31.981Z,24.2
2023-01-21T00:48:33.905Z,24.2
2023-01-21T00:49:35.783Z,24.2
2023-01-21T00:50:37.663Z,24.3
2023-01-21T00:51:39.415Z,24.3
2023-01-21T00:52:41.336Z,24.2
2023-01-21T00:53:43.169Z,24.2
2023-01-21T00:54:44.849Z,24.3
2023-01-21T00:55:46.685Z,24.3
2023-01-21T00:56:48.741Z,24.3
2023-01-21T00:57:50.995Z,24.3
2023-01-21T00:58:53.286Z,24.3
2023-01-21T00:59:55.627Z,24.3
2023-01-21T01:00:57.475Z,24.3
2023-01-21T01:01:59.364Z,24.3
2023-01-21T01:03:01.359Z,24.3
2023-01-21T01:04:03.593Z,24.3
2023-01-21T01:05:05.385Z,24.3
2023-01-21T01:06:07.249Z,24.3
2023-01-21T01:07:09.095Z,24.3
2023-01-21T01:08:10.935Z,24.3
2023-01-21T01:09:12.879Z,24.3
2023-01-21T01:10:15.089Z,24.3
2023-01-21T01:11:17.917Z,24.2
2023-01-21T01:12:19.779Z,24.3
2023-01-21T01:13:21.611Z,24.3
2023-01-21T01:14:23.559Z,24.3
2023-01-21T01:15:25.451Z,24.3
2023-01-21T01:16:27.266Z,24.3
2023-01-21T01:17:29.116Z,24.3
2023-01-21T01:18:30.966Z,24.3
2023-01-21T01:19:32.896Z,24.3
2023-01-21T01:20:34.768Z,24.3
2023-01-21T01:21:36.642Z,24.3
2023-01-21T01:22:38.650Z,24.3
2023-01-21T01:23:40.635Z,24.3
2023-01-21T01:24:42.550Z,24.3
2023-01-21T01:25:44.324Z,24.3
2023-01-21T01:26:46.184Z,24.3
2023-01-21T01:27:48.032Z,24.3
2023-01-21T01:28:49.984Z,24.3
2023-01-21T01:29:51.898Z,24.2
2023-01-21T01:30:53.853Z,24.2
2023-01-21T01:31:56.187Z,24.2
2023-01-21T01:32:58.015Z,24.3
2023-01-21T01:33:59.836Z,24.2
2023-01-21T01:35:01.737Z,24.2
2023-01-21T01:36:03.557Z,24.2
2023-01-21T01:37:05.415Z,24.2
2023-01-21T01:38:07.148Z,24.2
2023-01-21T01:39:08.997Z,24.2
2023-01-21T01:40:10.927Z,24.2
2023-01-21T01:41:12.774Z,24.2
2023-01-21T01:42:14.650Z,24.2
2023-01-21T01:43:16.501Z,24.2
2023-01-21T01:44:18.340Z,24.2
2023-01-21T01:45:20.114Z,24.2
2023-01-21T01:46:22.000Z,24.2
2023-01-21T01:47:24.167Z,24.2
2023-01-21T01:48:26.080Z,24.2
2023-01-21T01:49:27.999Z,24.2
2023-01-21T01:50:29.858Z,24.2
2023-01-21T01:51:31.695Z,24.2
2023-01-21T01:52:33.646Z,24.2
2023-01-21T01:53:35.517Z,24.2
2023-01-21T01:54:37.368Z,24.2
2023-01-21T01:55:39.209Z,24.2
2023-01-21T01:56:41.156Z,24.2
2023-01-21T01:57:43.044Z,24.2
2023-01-21T01:58:44.995Z,24.2
2023-01-21T01:59:46.918Z,24.2
2023-01-21T02:00:48.768Z,24.2
2023-01-21T02:01:50.625Z,24.2
2023-01-21T02:02:52.736Z,24.2
2023-01-21T02:03:54.737Z,24.2
2023-01-21T02:04:56.569Z,24.2
2023-01-21T02:05:58.463Z,24.2
2023-01-21T02:07:00.430Z,24.2
2023-01-21T02:08:02.374Z,24.2
2023-01-21T02:09:04.120Z,24.2
2023-01-21T02:10:06.033Z,24.2
2023-01-21T02:11:07.940Z,24.2
2023-01-21T02:12:09.832Z,24.2
2023-01-21T02:13:11.675Z,24.2
2023-01-21T02:14:13.587Z,24.2
2023-01-21T02:15:15.378Z,24.2
2023-01-21T02:16:17.440Z,24.2
2023-01-21T02:17:19.660Z,24.2
2023-01-21T02:18:21.484Z,24.2
2023-01-21T02:19:23.413Z,24.2
2023-01-21T02:20:25.251Z,24.2
2023-01-21T02:21:27.139Z,24.2
2023-01-21T02:22:29.083Z,24.2
2023-01-21T02:23:31.027Z,24.1
2023-01-21T02:24:32.869Z,24.2
2023-01-21T02:25:34.903Z,24.1
2023-01-21T02:26:36.798Z,24.1
2023-01-21T02:27:38.737Z,24.1
2023-01-21T02:28:40.582Z,24.1
2023-01-21T02:29:42.407Z,24.1
2023-01-21T02:30:44.272Z,24.1
2023-01-21T02:31:46.364Z,24.1
2023-01-21T02:32:48.463Z,24.1
2023-01-21T02:33:50.372Z,24.1
2023-01-21T02:34:52.200Z,24.1
2023-01-21T02:35:54.127Z,24.1
2023-01-21T02:36:55.889Z,24.1
2023-01-21T02:37:57.796Z,24.1
2023-01-21T02:38:59.694Z,24.1
2023-01-21T02:40:01.448Z,24.1
2023-01-21T02:41:03.372Z,24.1
2023-01-21T02:42:05.128Z,24.1
2023-01-21T02:43:06.944Z,24.1
2023-01-21T02:44:08.842Z,24.1
2023-01-21T02:45:10.678Z,24.1
2023-01-21T02:46:12.573Z,24.1
2023-01-21T02:47:14.679Z,24.1
2023-01-21T02:48:16.529Z,24.1
2023-01-21T02:49:18.309Z,24.1
2023-01-21T02:50:20.232Z,24.1
2023-01-21T02:51:22.097Z,24.1
2023-01-21T02:52:24.051Z,24.1
2023-01-21T02:53:26.017Z,24.1
2023-01-21T02:54:27.963Z,24.1
2023-01-21T02:55:29.906Z,24.1
2023-01-21T02:56:31.798Z,24.1
2023-01-21T02:57:33.688Z,24.1
2023-01-21T02:58:35.475Z,24.1
2023-01-21T02:59:37.281Z,24.1
2023-01-21T03:00:39.166Z,24.1
2023-01-21T03:01:41.224Z,24.1
2023-01-21T03:02:43.351Z,24.1
2023-01-21T03:03:45.216Z,24.1
2023-01-21T03:04:47.056Z,24.1
2023-01-21T03:05:48.984Z,24.1
2023-01-21T03:06:50.850Z,24.1
2023-01-21T03:07:52.721Z,24.1
2023-01-21T03:08:54.568Z,24.1
2023-01-21T03:09:56.452Z,24.1
2023-01-21T03:10:58.355Z,24
2023-01-21T03:12:00.202Z,24.1
2023-01-21T03:13:01.977Z,24.1
2023-01-21T03:14:03.806Z,24.1
2023-01-21T03:15:05.708Z,24.1
2023-01-21T03:16:07.797Z,24.1
2023-01-21T03:17:09.869Z,24.1
2023-01-21T03:18:11.657Z,24.1
2023-01-21T03:19:13.567Z,24.1
2023-01-21T03:20:15.759Z,24.1
2023-01-21T03:21:18.744Z,24.1
2023-01-21T03:22:20.549Z,24
2023-01-21T03:23:22.388Z,24
2023-01-21T03:24:24.246Z,24
2023-01-21T03:25:26.015Z,24
2023-01-21T03:26:27.810Z,24
2023-01-21T03:27:29.687Z,24
2023-01-21T03:28:31.535Z,24
2023-01-21T03:29:33.392Z,24
2023-01-21T03:30:35.470Z,24
2023-01-21T03:31:37.613Z,24
2023-01-21T03:32:39.659Z,24
2023-01-21T03:33:41.509Z,24
2023-01-21T03:34:43.226Z,24
2023-01-21T03:35:45.136Z,24.1
2023-01-21T03:36:46.939Z,24
2023-01-21T03:37:48.806Z,24
2023-01-21T03:38:51.238Z,24
2023-01-21T03:39:53.220Z,24
2023-01-21T03:40:55.003Z,24.1
2023-01-21T03:41:56.854Z,24
2023-01-21T03:42:58.802Z,24
2023-01-21T03:44:01.236Z,24
2023-01-21T03:45:03.158Z,24
2023-01-21T03:46:05.163Z,24
2023-01-21T03:47:07.313Z,24
2023-01-21T03:48:09.050Z,24
2023-01-21T03:49:10.820Z,24
2023-01-21T03:50:12.650Z,24
2023-01-21T03:51:14.560Z,24
2023-01-21T03:52:16.657Z,24
2023-01-21T03:53:18.508Z,24
2023-01-21T03:54:20.377Z,24
2023-01-21T03:55:22.164Z,24
2023-01-21T03:56:24.115Z,24
2023-01-21T03:57:26.002Z,24
2023-01-21T03:58:27.844Z,24
2023-01-21T03:59:29.827Z,24
2023-01-21T04:00:31.664Z,24
2023-01-21T04:01:33.569Z,24
2023-01-21T04:02:35.243Z,24
2023-01-21T04:03:37.107Z,24
2023-01-21T04:04:38.973Z,24
2023-01-21T04:05:40.873Z,24
2023-01-21T04:06:42.633Z,24
2023-01-21T04:07:44.569Z,24
2023-01-21T04:08:46.460Z,24
2023-01-21T04:09:48.243Z,24
2023-01-21T04:10:50.207Z,24
2023-01-21T04:11:52.196Z,24
2023-01-21T04:12:54.062Z,24
2023-01-21T04:13:55.930Z,24
2023-01-21T04:14:57.964Z,24
2023-01-21T04:15:59.810Z,24
2023-01-21T04:17:01.726Z,24
2023-01-21T04:18:03.617Z,24
2023-01-21T04:19:05.361Z,24
2023-01-21T04:20:07.424Z,24
2023-01-21T04:21:09.304Z,24
2023-01-21T04:22:11.258Z,24
2023-01-21T04:23:13.185Z,24
2023-01-21T04:24:15.030Z,23.9
2023-01-21T04:25:16.876Z,23.9
2023-01-21T04:26:18.758Z,24
2023-01-21T04:27:20.720Z,23.9
2023-01-21T04:28:22.646Z,23.9
2023-01-21T04:29:24.488Z,24
2023-01-21T04:30:26.325Z,24
2023-01-21T04:31:28.319Z,23.9
2023-01-21T04:32:30.333Z,23.9
2023-01-21T04:33:32.082Z,23.8
2023-01-21T04:34:33.944Z,23.7
2023-01-21T04:35:35.686Z,23.7
2023-01-21T04:36:37.565Z,23.7
2023-01-21T04:37:39.479Z,23.7
2023-01-21T04:38:41.341Z,23.7
2023-01-21T04:39:43.198Z,23.7
2023-01-21T04:40:44.915Z,23.7
2023-01-21T04:41:46.821Z,23.7
2023-01-21T04:42:48.766Z,23.7
2023-01-21T04:43:50.710Z,23.7
2023-01-21T04:44:52.540Z,23.7
2023-01-21T04:45:54.463Z,23.7
2023-01-21T04:46:56.641Z,23.7
2023-01-21T04:47:58.428Z,23.7
2023-01-21T04:49:00.279Z,23.7
2023-01-21T04:50:02.175Z,23.7
2023-01-21T04:51:04.130Z,23.7
2023-01-21T04:52:06.095Z,23.7
2023-01-21T04:53:07.954Z,23.7
2023-01-21T04:54:09.801Z,23.7
2023-01-21T04:55:11.689Z,23.7
2023-01-21T04:56:13.610Z,23.7
2023-01-21T04:57:15.447Z,23.8
2023-01-21T04:58:17.322Z,23.8
2023-01-21T04:59:19.093Z,23.8
2023-01-21T05:00:20.999Z,23.8
2023-01-21T05:01:22.788Z,23.8
2023-01-21T05:02:24.886Z,23.8
2023-01-21T05:03:27.027Z,23.8
2023-01-21T05:04:28.922Z,23.8
2023-01-21T05:05:30.769Z,23.8
2023-01-21T05:06:32.493Z,23.8
2023-01-21T05:07:34.359Z,23.8
2023-01-21T05:08:36.240Z,23.9
2023-01-21T05:09:38.061Z,23.8
2023-01-21T05:10:39.917Z,23.8
2023-01-21T05:11:41.621Z,23.8
2023-01-21T05:12:43.451Z,23.8
2023-01-21T05:13:45.423Z,23.8
2023-01-21T05:14:47.217Z,23.8
2023-01-21T05:15:49.256Z,23.8
2023-01-21T05:16:51.403Z,23.8
2023-01-21T05:17:53.428Z,23.8
2023-01-21T05:18:55.230Z,23.9
2023-01-21T05:19:57.094Z,23.9
2023-01-21T05:20:58.992Z,23.9
2023-01-21T05:22:00.887Z,23.8
2023-01-21T05:23:02.728Z,23.8
2023-01-21T05:24:04.525Z,23.8
2023-01-21T05:25:06.332Z,23.8
2023-01-21T05:26:08.251Z,23.8
2023-01-21T05:27:10.121Z,23.8
2023-01-21T05:28:11.970Z,23.8
2023-01-21T05:29:13.855Z,23.9
2023-01-21T05:30:15.853Z,23.8
2023-01-21T05:31:19.126Z,23.8
2023-01-21T05:32:21.434Z,23.8
2023-01-21T05:33:26.302Z,23.9
2023-01-21T05:34:28.194Z,23.9
2023-01-21T05:35:30.093Z,23.9
2023-01-21T05:36:32.225Z,23.9
2023-01-21T05:37:34.058Z,23.9
2023-01-21T05:38:35.795Z,23.9
2023-01-21T05:39:37.725Z,23.9
2023-01-21T05:40:39.609Z,23.9
2023-01-21T05:41:41.395Z,23.9
2023-01-21T05:42:43.092Z,23.9
2023-01-21T05:43:44.951Z,23.9
2023-01-21T05:44:46.823Z,23.9
2023-01-21T05:45:48.723Z,23.9
2023-01-21T05:46:50.821Z,23.9
2023-01-21T05:47:52.670Z,23.9
2023-01-21T05:48:54.571Z,23.9
2023-01-21T05:49:56.380Z,23.9
2023-01-21T05:50:58.504Z,23.9
2023-01-21T05:52:00.603Z,23.9
2023-01-21T05:53:02.514Z,23.9
2023-01-21T05:54:04.270Z,23.9
2023-01-21T05:55:06.075Z,23.9
2023-01-21T05:56:08.081Z,23.9
2023-01-21T05:57:09.956Z,23.9
2023-01-21T05:58:11.777Z,23.9
2023-01-21T05:59:13.637Z,23.9
2023-01-21T06:00:15.921Z,23.9
2023-01-21T06:01:19.435Z,23.9
2023-01-21T06:02:21.370Z,23.9
2023-01-21T06:03:23.395Z,23.9
2023-01-21T06:04:25.426Z,23.9
2023-01-21T06:05:27.277Z,23.9
2023-01-21T06:06:29.201Z,23.9
2023-01-21T06:07:30.917Z,23.9
2023-01-21T06:08:32.846Z,23.9
2023-01-21T06:09:34.677Z,23.9
2023-01-21T06:10:36.524Z,24
2023-01-21T06:11:38.379Z,24
2023-01-21T06:12:40.236Z,24
2023-01-21T06:13:42.232Z,24
2023-01-21T06:14:44.031Z,24
2023-01-21T06:15:45.902Z,24
2023-01-21T06:16:48.093Z,24
2023-01-21T06:17:50.109Z,24
2023-01-21T06:18:51.945Z,24
2023-01-21T06:19:53.788Z,24
2023-01-21T06:20:55.654Z,24
2023-01-21T06:21:57.510Z,24
2023-01-21T06:22:59.415Z,24
2023-01-21T06:24:01.297Z,24
2023-01-21T06:25:03.049Z,24
2023-01-21T06:26:04.893Z,24
2023-01-21T06:27:06.755Z,24
2023-01-21T06:28:08.682Z,24
2023-01-21T06:29:10.550Z,24.1
2023-01-21T06:30:12.410Z,24.1
2023-01-21T06:31:14.404Z,24.1
2023-01-21T06:32:16.615Z,24
2023-01-21T06:33:18.529Z,24.1
2023-01-21T06:34:20.407Z,24.1
2023-01-21T06:35:22.268Z,24.1
2023-01-21T06:36:24.120Z,24.1
2023-01-21T06:37:25.981Z,24.1
2023-01-21T06:38:27.873Z,24.1
2023-01-21T06:39:29.759Z,24.1
2023-01-21T06:40:31.619Z,24.1
2023-01-21T06:41:33.462Z,24.1
2023-01-21T06:42:35.239Z,24.1
2023-01-21T06:43:37.005Z,24.1
2023-01-21T06:44:39.020Z,24.1
2023-01-21T06:45:40.934Z,24.1
2023-01-21T06:46:45.881Z,24.1
2023-01-21T06:48:03.522Z,24.1
2023-01-21T06:49:05.388Z,24.1
2023-01-21T06:50:07.238Z,24.1
2023-01-21T06:51:08.978Z,24.1
2023-01-21T06:52:11.022Z,24.1
2023-01-21T06:53:12.965Z,24.1
2023-01-21T06:54:14.750Z,24.1
2023-01-21T06:55:16.565Z,24.1
2023-01-21T06:56:18.314Z,24.1
2023-01-21T06:57:20.084Z,24.1
2023-01-21T06:58:22.059Z,24.1
2023-01-21T06:59:23.953Z,24.1
2023-01-21T07:00:25.832Z,24.1
2023-01-21T07:01:27.676Z,24.1
2023-01-21T07:02:33.959Z,24.2
2023-01-21T07:03:36.049Z,24.2
2023-01-21T07:04:37.944Z,24.2
2023-01-21T07:05:39.917Z,24.2
2023-01-21T07:06:41.743Z,24.2
2023-01-21T07:07:43.478Z,24.2
2023-01-21T07:08:45.355Z,24.2
2023-01-21T07:09:47.215Z,24.2
2023-01-21T07:10:49.123Z,24.2
2023-01-21T07:11:50.984Z,24.2
2023-01-21T07:12:52.831Z,24.2
2023-01-21T07:13:54.684Z,24.2
2023-01-21T07:14:56.563Z,24.2
2023-01-21T07:15:58.248Z,24.2
2023-01-21T07:17:00.222Z,24.2
2023-01-21T07:18:02.112Z,24.2
2023-01-21T07:19:04.115Z,24.2
2023-01-21T07:20:05.990Z,24.2
2023-01-21T07:21:07.851Z,24.2
2023-01-21T07:22:09.571Z,24.2
2023-01-21T07:23:11.433Z,24.2
2023-01-21T07:24:13.349Z,24.2
2023-01-21T07:25:15.547Z,24.2
2023-01-21T07:26:18.718Z,24.2
2023-01-21T07:27:20.575Z,24.3
2023-01-21T07:28:22.452Z,24.3
2023-01-21T07:29:24.344Z,24.3
2023-01-21T07:30:26.690Z,24.3
2023-01-21T07:31:28.705Z,24.3
2023-01-21T07:32:31.054Z,24.3
2023-01-21T07:33:32.917Z,24.3
2023-01-21T07:34:34.690Z,24.3
2023-01-21T07:35:36.777Z,24.3
2023-01-21T07:36:38.652Z,24.3
2023-01-21T07:37:40.390Z,24.3
2023-01-21T07:38:42.256Z,24.3
2023-01-21T07:39:44.162Z,24.3
2023-01-21T07:40:46.216Z,24.3
2023-01-21T07:41:48.115Z,24.3
2023-01-21T07:42:49.957Z,24.3
2023-01-21T07:43:51.821Z,24.3
2023-01-21T07:44:53.654Z,24.3
2023-01-21T07:45:55.505Z,24.4
2023-01-21T07:47:01.772Z,24.4
2023-01-21T07:48:03.606Z,24.4
2023-01-21T07:49:08.456Z,24.4
2023-01-21T07:50:10.385Z,24.4
2023-01-21T07:51:12.326Z,24.4
2023-01-21T07:52:14.217Z,24.4
2023-01-21T07:53:16.055Z,24.4
2023-01-21T07:54:17.794Z,24.5
2023-01-21T07:55:19.887Z,24.5
2023-01-21T07:56:21.824Z,24.5
2023-01-21T07:57:23.747Z,24.5
2023-01-21T07:58:25.598Z,24.5
2023-01-21T07:59:27.433Z,24.5
2023-01-21T08:00:29.364Z,24.6
2023-01-21T08:01:31.442Z,24.6
2023-01-21T08:02:33.676Z,24.6
2023-01-21T08:03:35.973Z,24.6
2023-01-21T08:04:37.859Z,24.6
2023-01-21T08:05:39.771Z,24.6
2023-01-21T08:06:41.767Z,24.6
2023-01-21T08:07:43.675Z,24.6
2023-01-21T08:08:45.525Z,24.6
2023-01-21T08:09:47.380Z,24.6
2023-01-21T08:10:49.237Z,24.6
2023-01-21T08:11:50.939Z,24.6
2023-01-21T08:12:52.823Z,24.7
2023-01-21T08:13:54.685Z,24.7
2023-01-21T08:14:56.528Z,24.7
2023-01-21T08:15:58.292Z,24.7
2023-01-21T08:17:00.708Z,24.7
2023-01-21T08:18:02.585Z,24.7
2023-01-21T08:19:04.427Z,24.7
2023-01-21T08:20:06.204Z,24.7
2023-01-21T08:21:08.072Z,24.7
2023-01-21T08:22:09.884Z,24.7
2023-01-21T08:23:11.732Z,24.7
2023-01-21T08:24:13.586Z,24.7
2023-01-21T08:25:15.653Z,24.7
2023-01-21T08:26:19.082Z,24.7
2023-01-21T08:27:20.986Z,24.8
2023-01-21T08:28:22.841Z,24.8
2023-01-21T08:29:24.657Z,24.7
2023-01-21T08:30:26.534Z,24.8
2023-01-21T08:31:28.428Z,24.8
2023-01-21T08:32:30.530Z,24.8
2023-01-21T08:33:35.002Z,24.8
2023-01-21T08:34:36.952Z,24.8
2023-01-21T08:35:38.879Z,24.8
2023-01-21T08:36:40.794Z,24.8
2023-01-21T08:37:42.650Z,24.8
2023-01-21T08:38:44.786Z,24.8
2023-01-21T08:39:50.382Z,24.8
2023-01-21T08:40:52.284Z,24.8
2023-01-21T08:41:54.151Z,24.8
2023-01-21T08:42:56.000Z,24.8
2023-01-21T08:43:57.827Z,24.8
2023-01-21T08:44:59.719Z,24.8
2023-01-21T08:46:01.794Z,24.8
2023-01-21T08:47:03.917Z,24.8
2023-01-21T08:48:05.673Z,24.8
2023-01-21T08:49:07.511Z,24.8
2023-01-21T08:50:09.334Z,24.8
2023-01-21T08:51:11.272Z,24.8
2023-01-21T08:52:13.372Z,24.8
2023-01-21T08:53:15.215Z,24.8
2023-01-21T08:54:17.062Z,24.8
2023-01-21T08:55:19.123Z,24.8
2023-01-21T08:56:21.070Z,24.8
2023-01-21T08:57:22.994Z,24.8
2023-01-21T08:58:24.791Z,24.8
2023-01-21T08:59:26.618Z,24.7
2023-01-21T09:00:28.359Z,24.7
2023-01-21T09:01:30.211Z,24.7
2023-01-21T09:02:32.106Z,24.7
2023-01-21T09:03:34.041Z,24.7
2023-01-21T09:04:35.860Z,24.7
2023-01-21T09:05:37.744Z,24.7
2023-01-21T09:06:39.638Z,24.7
2023-01-21T09:07:41.535Z,24.7
2023-01-21T09:08:43.579Z,24.6
2023-01-21T09:09:45.429Z,24.6
2023-01-21T09:10:47.273Z,24.6
2023-01-21T09:11:49.192Z,24.6
2023-01-21T09:12:51.007Z,24.7
2023-01-21T09:13:52.749Z,24.6
2023-01-21T09:14:54.650Z,24.7
2023-01-21T09:15:56.663Z,24.7
2023-01-21T09:16:58.407Z,24.7
2023-01-21T09:18:00.368Z,24.7
2023-01-21T09:19:02.280Z,24.7
2023-01-21T09:20:04.132Z,24.7
2023-01-21T09:21:05.875Z,24.7
2023-01-21T09:22:07.783Z,24.7
2023-01-21T09:23:09.470Z,24.7
2023-01-21T09:24:11.340Z,24.6
2023-01-21T09:25:13.281Z,24.6
2023-01-21T09:26:15.281Z,24.6
2023-01-21T09:27:17.176Z,24.7
2023-01-21T09:28:19.102Z,24.6
2023-01-21T09:29:20.995Z,24.6
2023-01-21T09:30:22.843Z,24.6
2023-01-21T09:31:24.818Z,24.6
2023-01-21T09:32:27.176Z,24.6
2023-01-21T09:33:29.003Z,24.6
2023-01-21T09:34:30.951Z,24.6
2023-01-21T09:35:34.227Z,24.6
2023-01-21T09:36:35.972Z,24.6
2023-01-21T09:37:37.762Z,24.6
2023-01-21T09:38:39.754Z,24.6
2023-01-21T09:39:41.643Z,24.6
2023-01-21T09:40:43.576Z,24.6
2023-01-21T09:41:45.469Z,24.6
2023-01-21T09:42:47.389Z,24.6
2023-01-21T09:43:49.286Z,24.6
2023-01-21T09:44:51.195Z,24.6
2023-01-21T09:45:53.048Z,24.6
2023-01-21T09:46:55.207Z,24.6
2023-01-21T09:47:57.053Z,24.6
2023-01-21T09:48:58.751Z,24.6
2023-01-21T09:50:03.322Z,24.6
2023-01-21T09:51:05.325Z,24.6
2023-01-21T09:52:07.414Z,24.6
2023-01-21T09:53:09.294Z,24.6
2023-01-21T09:54:11.085Z,24.6
2023-01-21T09:55:12.969Z,24.6
2023-01-21T09:56:14.721Z,24.6
2023-01-21T09:57:16.612Z,24.7
2023-01-21T09:58:18.521Z,24.6
2023-01-21T09:59:21.124Z,24.6
2023-01-21T10:00:23.041Z,24.7
2023-01-21T10:01:24.827Z,24.7
2023-01-21T10:02:26.938Z,24.7
2023-01-21T10:03:28.840Z,24.6
2023-01-21T10:04:30.857Z,24.6
2023-01-21T10:05:33.168Z,24.6
2023-01-21T10:06:35.142Z,24.7
2023-01-21T10:07:37.211Z,24.7
2023-01-21T10:08:39.163Z,24.6
2023-01-21T10:09:40.832Z,24.7
2023-01-21T10:10:42.568Z,24.7
2023-01-21T10:11:46.176Z,24.7
2023-01-21T10:12:48.055Z,24.7
2023-01-21T10:13:50.068Z,24.7
2023-01-21T10:14:51.917Z,24.7
2023-01-21T10:15:53.663Z,24.7
2023-01-21T10:16:55.597Z,24.7
2023-01-21T10:17:57.783Z,24.7
2023-01-21T10:18:59.705Z,24.6
2023-01-21T10:20:01.595Z,24.7
2023-01-21T10:21:03.477Z,24.7
2023-01-21T10:22:05.502Z,24.7
2023-01-21T10:23:07.345Z,24.7
2023-01-21T10:24:09.301Z,24.7
2023-01-21T10:25:11.140Z,24.7
2023-01-21T10:26:13.007Z,24.7
2023-01-21T10:27:14.907Z,24.7
2023-01-21T10:28:16.798Z,24.7
2023-01-21T10:29:18.571Z,24.7
2023-01-21T10:30:20.501Z,24.7
2023-01-21T10:31:22.547Z,24.7
2023-01-21T10:32:24.872Z,24.7
2023-01-21T10:33:26.799Z,24.7
2023-01-21T10:34:28.763Z,24.7
2023-01-21T10:35:30.555Z,24.7
2023-01-21T10:36:34.991Z,24.7
2023-01-21T10:37:37.312Z,24.7
2023-01-21T10:38:39.180Z,24.7
2023-01-21T10:39:41.063Z,24.8
2023-01-21T10:40:42.934Z,24.8
2023-01-21T10:41:44.949Z,24.8
2023-01-21T10:42:46.856Z,24.8
2023-01-21T10:43:52.942Z,24.8
2023-01-21T10:44:54.739Z,24.8
2023-01-21T10:45:56.654Z,24.8
2023-01-21T10:46:58.795Z,24.8
2023-01-21T10:48:00.724Z,24.8
2023-01-21T10:49:02.425Z,24.8
2023-01-21T10:50:04.342Z,24.8
2023-01-21T10:51:06.279Z,24.8
2023-01-21T10:52:08.252Z,24.8
2023-01-21T10:53:10.017Z,24.8
2023-01-21T10:54:11.910Z,24.8
2023-01-21T10:55:13.735Z,24.8
2023-01-21T10:56:15.864Z,24.8
2023-01-21T10:57:17.729Z,24.8
2023-01-21T10:58:19.624Z,24.8
2023-01-21T10:59:21.482Z,24.8
2023-01-21T11:00:23.365Z,24.8
2023-01-21T11:01:25.227Z,24.8
2023-01-21T11:02:27.220Z,24.8
2023-01-21T11:03:29.252Z,24.8
2023-01-21T11:04:31.231Z,24.8
2023-01-21T11:05:32.932Z,24.8
2023-01-21T11:06:34.747Z,24.8
2023-01-21T11:07:36.625Z,24.8
2023-01-21T11:08:38.556Z,24.8
2023-01-21T11:09:40.574Z,24.8
2023-01-21T11:10:42.495Z,24.8
2023-01-21T11:11:44.221Z,24.9
2023-01-21T11:12:46.069Z,24.9
2023-01-21T11:13:47.965Z,24.9
2023-01-21T11:14:49.875Z,24.8
2023-01-21T11:15:52.416Z,24.8
2023-01-21T11:16:54.487Z,24.9
2023-01-21T11:17:56.737Z,24.9
2023-01-21T11:18:58.646Z,24.9
2023-01-21T11:20:00.722Z,24.9
2023-01-21T11:21:02.542Z,24.9
2023-01-21T11:22:04.489Z,24.9
2023-01-21T11:23:06.410Z,24.9
2023-01-21T11:24:08.256Z,24.9
2023-01-21T11:25:10.046Z,24.9
2023-01-21T11:26:11.996Z,24.9
2023-01-21T11:27:13.906Z,24.9
2023-01-21T11:28:15.755Z,24.9
2023-01-21T11:29:17.583Z,24.9
2023-01-21T11:30:37.207Z,24.9
2023-01-21T11:31:57.689Z,24.9
2023-01-21T11:32:59.827Z,24.9
2023-01-21T11:34:01.592Z,24.9
2023-01-21T11:35:03.311Z,24.9
2023-01-21T11:36:05.172Z,24.9
2023-01-21T11:37:07.179Z,24.9
2023-01-21T11:38:09.085Z,24.9
2023-01-21T11:39:10.823Z,24.9
2023-01-21T11:40:12.669Z,24.9
2023-01-21T11:41:14.420Z,24.9
2023-01-21T11:42:16.292Z,24.9
2023-01-21T11:43:18.121Z,24.9
2023-01-21T11:44:20.015Z,24.9
2023-01-21T11:45:21.815Z,24.9
2023-01-21T11:46:23.671Z,24.9
2023-01-21T11:47:25.727Z,25
2023-01-21T11:48:27.565Z,25
2023-01-21T11:49:29.445Z,25
2023-01-21T11:50:31.262Z,25
2023-01-21T11:51:33.216Z,25
2023-01-21T11:52:35.076Z,25
2023-01-21T11:53:36.921Z,25
2023-01-21T11:54:38.783Z,25
2023-01-21T11:55:40.661Z,25
2023-01-21T11:56:42.520Z,25
2023-01-21T11:57:44.568Z,25
2023-01-21T11:58:46.488Z,25
2023-01-21T11:59:48.336Z,25
2023-01-21T12:00:50.184Z,25
2023-01-21T12:01:52.103Z,25
2023-01-21T12:02:54.023Z,25
2023-01-21T12:03:56.144Z,25
2023-01-21T12:04:58.199Z,25
2023-01-21T12:06:00.065Z,25
2023-01-21T12:07:01.903Z,25
2023-01-21T12:08:03.750Z,25
2023-01-21T12:09:05.668Z,25
2023-01-21T12:10:07.619Z,25
2023-01-21T12:11:09.394Z,25.1
2023-01-21T12:12:11.250Z,25
2023-01-21T12:13:13.125Z,25
2023-01-21T12:14:15.017Z,25
2023-01-21T12:15:16.903Z,25
2023-01-21T12:16:18.784Z,25
2023-01-21T12:17:20.920Z,25
2023-01-21T12:18:22.801Z,25
2023-01-21T12:19:24.718Z,25
2023-01-21T12:20:26.575Z,25
2023-01-21T12:21:28.351Z,25
2023-01-21T12:22:30.364Z,25
2023-01-21T12:23:32.319Z,25
2023-01-21T12:24:34.168Z,25
2023-01-21T12:25:36.010Z,25
2023-01-21T12:26:37.894Z,25
2023-01-21T12:27:39.736Z,25
2023-01-21T12:28:41.560Z,25
2023-01-21T12:29:43.422Z,24.9
2023-01-21T12:30:45.274Z,24.9
2023-01-21T12:31:47.548Z,25
2023-01-21T12:32:49.560Z,25
2023-01-21T12:33:51.422Z,24.9
2023-01-21T12:34:53.281Z,24.8
2023-01-21T12:35:55.129Z,24.8
2023-01-21T12:36:57.256Z,24.8
2023-01-21T12:37:59.122Z,24.7
2023-01-21T12:39:00.987Z,24.6
2023-01-21T12:40:02.906Z,24.6
2023-01-21T12:41:04.994Z,24.7
2023-01-21T12:42:06.838Z,24.7
2023-01-21T12:43:08.708Z,24.7
2023-01-21T12:44:10.603Z,24.7
2023-01-21T12:45:12.420Z,24.7
2023-01-21T12:46:14.563Z,24.8
2023-01-21T12:47:16.608Z,24.8
2023-01-21T12:48:18.452Z,24.8
2023-01-21T12:49:20.307Z,24.8
2023-01-21T12:50:22.153Z,24.8
2023-01-21T12:51:24.117Z,24.8
2023-01-21T12:52:26.365Z,24.8
2023-01-21T12:53:28.123Z,24.8
2023-01-21T12:54:29.972Z,24.8
2023-01-21T12:55:31.922Z,24.9
2023-01-21T12:56:33.722Z,24.9
2023-01-21T12:57:35.614Z,24.9
2023-01-21T12:58:37.482Z,24.9
2023-01-21T12:59:39.353Z,24.9
2023-01-21T13:00:41.326Z,24.9
2023-01-21T13:01:43.272Z,24.9
2023-01-21T13:02:45.271Z,24.9
2023-01-21T13:03:47.177Z,24.9
2023-01-21T13:04:49.298Z,24.9
2023-01-21T13:05:51.138Z,24.9
2023-01-21T13:06:54.406Z,25
2023-01-21T13:07:56.450Z,25
2023-01-21T13:08:58.336Z,25
2023-01-21T13:10:00.246Z,25
2023-01-21T13:11:02.127Z,25
2023-01-21T13:12:03.972Z,25
2023-01-21T13:13:05.837Z,25
2023-01-21T13:14:07.699Z,25
2023-01-21T13:15:09.523Z,25
2023-01-21T13:16:11.404Z,25
2023-01-21T13:17:13.323Z,25
2023-01-21T13:18:15.248Z,25
2023-01-21T13:19:17.063Z,25
2023-01-21T13:20:19.225Z,25
2023-01-21T13:21:21.748Z,25
2023-01-21T13:22:23.502Z,25
2023-01-21T13:23:25.410Z,25
2023-01-21T13:24:29.913Z,25
2023-01-21T13:25:31.810Z,25
2023-01-21T13:26:33.565Z,24.9
2023-01-21T13:27:35.407Z,24.9
2023-01-21T13:28:37.257Z,24.9
2023-01-21T13:29:38.988Z,24.9
2023-01-21T13:30:41.099Z,24.9
2023-01-21T13:31:43.360Z,24.9
2023-01-21T13:32:45.474Z,24.9
2023-01-21T13:33:47.547Z,24.8
2023-01-21T13:34:49.364Z,24.8
2023-01-21T13:35:51.273Z,24.8
2023-01-21T13:36:53.090Z,24.8
2023-01-21T13:37:54.940Z,24.8
2023-01-21T13:38:56.846Z,24.8
2023-01-21T13:39:58.633Z,24.8
2023-01-21T13:41:00.493Z,24.8
2023-01-21T13:42:02.337Z,24.8
2023-01-21T13:43:04.386Z,24.8
2023-01-21T13:44:06.222Z,24.8
2023-01-21T13:45:08.095Z,24.8
2023-01-21T13:46:10.155Z,24.8
2023-01-21T13:47:12.406Z,24.8
2023-01-21T13:48:14.248Z,24.8
2023-01-21T13:49:16.165Z,24.8
2023-01-21T13:50:18.410Z,24.8
2023-01-21T13:51:21.390Z,24.8
2023-01-21T13:52:23.299Z,24.8
2023-01-21T13:53:25.171Z,24.8
2023-01-21T13:54:27.071Z,24.8